Аэропорт: Мурманск. Мурманск

ICAO: ULMM

METAR:
2019-07-23 18:30:00
ULMM 231830Z 12003MPS CAVOK 24/08 Q1015 R13/090070 NOSIG RMK QFE755
METAR:
2019-07-23 16:50:00
TAF ULMM 231650Z 2318/2418 06003MPS 9999 SCT020 TEMPO 2318/2321 02003MPS BECMG 2321/2323 16003MPS TEMPO 2323/2406 13002MPS 3100 BR FEW002 SCT020 TEMPO 2406/2418 19003G08MPS